Neptune Antlia — S6BE — position and weather

sailwx.info

Track history (hours):
 
Tides and Currents Weather Stations Pressure Air Temp Water Temp Dewpoint Dewpoint Depression Visibility Wind Speed Wind Dir Waves Ship Positions

Neptune Antlia

Last reported at 2014-Nov-20 13:33 UTC. Time now 2014-Nov-26 01:39 UTC.
Position N 35°59' W 005°32'.

Type: Cargo ship. MMSI: 563737000.

Date/timePositionNaut miles runAvg speedWind from/ knotsBaromVisibWave heightAir tempDewpointWater temp
2014-Nov-20 13:33N 35°59' W 005°32'1010.3
2014-Nov-20 12:34N 36°07' W 005°23'1 1.3
2014-Nov-20 11:31N 36°08' W 005°23'0 0.1
2014-Nov-20 10:22N 36°08' W 005°23'0 0.1
2014-Nov-20 09:19N 36°08' W 005°23'0 0.1
2014-Nov-20 08:31N 36°08' W 005°23'0 0.0
2014-Nov-20 07:28N 36°08' W 005°23'0 0.0
2014-Nov-20 06:31N 36°08' W 005°23'0 0.0
2014-Nov-20 05:31N 36°08' W 005°23'0 0.0
2014-Nov-20 04:31N 36°08' W 005°23'0 0.0
2014-Nov-20 03:31N 36°08' W 005°23'0 0.1
2014-Nov-20 02:31N 36°08' W 005°23'0 0.1
2014-Nov-20 01:25N 36°08' W 005°23'0 0.1
2014-Nov-19 23:31N 36°08' W 005°23'0 0.2
2014-Nov-19 22:25N 36°08' W 005°23'0 0.1
2014-Nov-19 21:33N 36°08' W 005°23'4 3.6
2014-Nov-19 20:32N 36°05' W 005°20'8 7.8
2014-Nov-19 19:33N 36°07' W 005°11'2 0.9
2014-Nov-19 17:21N 36°08' W 005°09'0 0.3
2014-Nov-19 16:33N 36°08' W 005°09'2 0.7
2014-Nov-19 14:14N 36°09' W 005°08'1 0.8
2014-Nov-19 13:11N 36°09' W 005°09'  
2014-Nov-16 12:04N 36°57' E 012°48'713.0
2014-Nov-16 11:30N 36°55' E 012°57'1112.2
2014-Nov-16 10:33N 36°53' E 013°11'1312.2
2014-Nov-16 09:31N 36°50' E 013°26'1212.3
2014-Nov-16 08:34N 36°47' E 013°41'1212.1
2014-Nov-16 07:34N 36°45' E 013°55'1212.4
2014-Nov-16 06:34N 36°42' E 014°11'1312.6
2014-Nov-16 05:34N 36°40' E 014°26'1212.5
2014-Nov-16 04:34N 36°37' E 014°41'1313.0
2014-Nov-16 03:33N 36°34' E 014°57'1512.7
2014-Nov-16 02:22N 36°34' E 015°16'  
Track history (hours):
 
Tides and Currents Weather Stations Pressure Air Temp Water Temp Dewpoint Dewpoint Depression Visibility Wind Speed Wind Dir Waves Ship Positions

Neptune Antlia

Last reported at 2014-Nov-20 13:33 UTC. Time now 2014-Nov-26 01:39 UTC.
Position N 35°59' W 005°32'.

Type: Cargo ship. MMSI: 563737000.

Date/timePositionNaut miles runAvg speedWind from/ knotsBaromVisibWave heightAir tempDewpointWater temp
2014-Nov-20 13:33N 35°59' W 005°32'1010.3
2014-Nov-20 12:34N 36°07' W 005°23'1 1.3
2014-Nov-20 11:31N 36°08' W 005°23'0 0.1
2014-Nov-20 10:22N 36°08' W 005°23'0 0.1
2014-Nov-20 09:19N 36°08' W 005°23'0 0.1
2014-Nov-20 08:31N 36°08' W 005°23'0 0.0
2014-Nov-20 07:28N 36°08' W 005°23'0 0.0
2014-Nov-20 06:31N 36°08' W 005°23'0 0.0
2014-Nov-20 05:31N 36°08' W 005°23'0 0.0
2014-Nov-20 04:31N 36°08' W 005°23'0 0.0
2014-Nov-20 03:31N 36°08' W 005°23'0 0.1
2014-Nov-20 02:31N 36°08' W 005°23'0 0.1
2014-Nov-20 01:25N 36°08' W 005°23'0 0.1
2014-Nov-19 23:31N 36°08' W 005°23'0 0.2
2014-Nov-19 22:25N 36°08' W 005°23'0 0.1
2014-Nov-19 21:33N 36°08' W 005°23'4 3.6
2014-Nov-19 20:32N 36°05' W 005°20'8 7.8
2014-Nov-19 19:33N 36°07' W 005°11'2 0.9
2014-Nov-19 17:21N 36°08' W 005°09'0 0.3
2014-Nov-19 16:33N 36°08' W 005°09'2 0.7
2014-Nov-19 14:14N 36°09' W 005°08'1 0.8
2014-Nov-19 13:11N 36°09' W 005°09'  
2014-Nov-16 12:04N 36°57' E 012°48'713.0
2014-Nov-16 11:30N 36°55' E 012°57'1112.2
2014-Nov-16 10:33N 36°53' E 013°11'1312.2
2014-Nov-16 09:31N 36°50' E 013°26'1212.3
2014-Nov-16 08:34N 36°47' E 013°41'1212.1
2014-Nov-16 07:34N 36°45' E 013°55'1212.4
2014-Nov-16 06:34N 36°42' E 014°11'1312.6
2014-Nov-16 05:34N 36°40' E 014°26'1212.5
2014-Nov-16 04:34N 36°37' E 014°41'1313.0
2014-Nov-16 03:33N 36°34' E 014°57'1512.7
2014-Nov-16 02:22N 36°34' E 015°16'  

Dump ship's entire track history